createdAt,value
2022-08-21T00:01:47.080Z,99743.83
2022-08-21T00:04:22.150Z,99742.95
2022-08-21T00:06:52.009Z,99743.39
2022-08-21T00:09:20.527Z,99737.36
2022-08-21T00:11:49.025Z,99730.11
2022-08-21T00:14:17.532Z,99721.04
2022-08-21T00:16:45.872Z,99708.75
2022-08-21T00:19:14.155Z,99703.23
2022-08-21T00:21:44.460Z,99697.86
2022-08-21T00:24:13.432Z,99702.21
2022-08-21T00:26:41.200Z,99704.48
2022-08-21T00:29:09.211Z,99704.11
2022-08-21T00:31:38.305Z,99700.23
2022-08-21T00:34:06.419Z,99705.63
2022-08-21T00:36:35.028Z,99713.53
2022-08-21T00:39:03.461Z,99712.64
2022-08-21T00:41:36.851Z,99714.87
2022-08-21T00:44:11.524Z,99710.63
2022-08-21T00:46:39.588Z,99711.10
2022-08-21T00:49:08.590Z,99704.65
2022-08-21T00:51:39.735Z,99695.92
2022-08-21T00:54:16.102Z,99692.26
2022-08-21T00:56:54.365Z,99694.20
2022-08-21T00:59:24.544Z,99694.04
2022-08-21T01:01:53.266Z,99692.30
2022-08-21T01:04:22.081Z,99686.63
2022-08-21T01:06:49.996Z,99681.57
2022-08-21T01:09:19.177Z,99674.66
2022-08-21T01:11:47.624Z,99668.12
2022-08-21T01:14:16.040Z,99656.71
2022-08-21T01:16:45.171Z,99655.66
2022-08-21T01:19:13.378Z,99658.42
2022-08-21T01:21:41.188Z,99660.10
2022-08-21T01:24:09.486Z,99658.31
2022-08-21T01:26:37.660Z,99658.08
2022-08-21T01:29:06.074Z,99654.59
2022-08-21T01:31:34.734Z,99644.27
2022-08-21T01:34:02.672Z,99636.39
2022-08-21T01:36:30.553Z,99637.15
2022-08-21T01:38:58.986Z,99638.98
2022-08-21T01:41:27.098Z,99635.83
2022-08-21T01:43:55.373Z,99628.59
2022-08-21T01:46:23.850Z,99626.08
2022-08-21T01:48:51.857Z,99620.71
2022-08-21T01:51:20.106Z,99620.20
2022-08-21T01:53:48.234Z,99613.23
2022-08-21T01:56:16.734Z,99611.74
2022-08-21T01:58:45.851Z,99612.70
2022-08-21T02:01:14.005Z,99611.10
2022-08-21T02:03:42.302Z,99599.86
2022-08-21T02:06:14.495Z,99595.84
2022-08-21T02:08:42.352Z,99589.94
2022-08-21T02:11:10.290Z,99586.61
2022-08-21T02:13:38.629Z,99585.20
2022-08-21T02:16:07.899Z,99577.85
2022-08-21T02:18:36.024Z,99564.66
2022-08-21T02:21:04.755Z,99556.31
2022-08-21T02:23:34.113Z,99551.65
2022-08-21T02:26:02.946Z,99546.13
2022-08-21T02:28:32.224Z,99541.20
2022-08-21T02:31:00.309Z,99532.96
2022-08-21T02:33:28.894Z,99527.25
2022-08-21T02:35:57.388Z,99527.63
2022-08-21T02:38:27.448Z,99528.38
2022-08-21T02:40:56.321Z,99529.92
2022-08-21T02:43:25.239Z,99536.67
2022-08-21T02:45:54.899Z,99539.60
2022-08-21T02:48:24.538Z,99538.48
2022-08-21T02:50:54.265Z,99541.89
2022-08-21T02:53:22.186Z,99542.11
2022-08-21T02:55:51.561Z,99552.05
2022-08-21T02:58:22.089Z,99558.97
2022-08-21T03:00:50.921Z,99560.70
2022-08-21T03:03:19.048Z,99564.11
2022-08-21T03:05:46.953Z,99572.02
2022-08-21T03:08:16.439Z,99574.17
2022-08-21T03:10:47.657Z,99573.96
2022-08-21T03:13:15.807Z,99576.77
2022-08-21T03:15:44.647Z,99578.28
2022-08-21T03:18:13.092Z,99577.80
2022-08-21T03:20:42.315Z,99580.95
2022-08-21T03:23:14.148Z,99575.64
2022-08-21T03:25:45.523Z,99580.27
2022-08-21T03:28:15.865Z,99588.32
2022-08-21T03:30:45.148Z,99592.72
2022-08-21T03:33:15.020Z,99594.50
2022-08-21T03:35:44.898Z,99594.91
2022-08-21T03:38:14.206Z,99592.98
2022-08-21T03:40:43.176Z,99599.69
2022-08-21T03:43:11.653Z,99607.23
2022-08-21T03:45:40.542Z,99607.66
2022-08-21T03:48:10.132Z,99609.79
2022-08-21T03:50:41.208Z,99608.40
2022-08-21T03:53:16.463Z,99612.86
2022-08-21T03:55:47.751Z,99617.42
2022-08-21T03:58:17.916Z,99616.73
2022-08-21T04:00:46.930Z,99624.14
2022-08-21T04:03:15.101Z,99622.06
2022-08-21T04:05:43.359Z,99626.17
2022-08-21T04:08:11.513Z,99622.86
2022-08-21T04:10:40.326Z,99611.61
2022-08-21T04:13:09.306Z,99603.95
2022-08-21T04:15:37.733Z,99606.00
2022-08-21T04:18:05.739Z,99602.35
2022-08-21T04:20:34.245Z,99600.65
2022-08-21T04:23:03.030Z,99599.23
2022-08-21T04:25:31.040Z,99594.17
2022-08-21T04:27:59.782Z,99587.39
2022-08-21T04:30:28.940Z,99578.84
2022-08-21T04:32:58.281Z,99570.89
2022-08-21T04:35:27.570Z,99568.12
2022-08-21T04:37:56.041Z,99581.95
2022-08-21T04:40:26.787Z,99589.23
2022-08-21T04:43:06.184Z,99581.64
2022-08-21T04:45:42.317Z,99578.75
2022-08-21T04:48:14.119Z,99580.06
2022-08-21T04:50:42.816Z,99577.60
2022-08-21T04:53:19.368Z,99572.48
2022-08-21T04:55:48.469Z,99568.52
2022-08-21T04:58:18.533Z,99569.83
2022-08-21T05:00:47.264Z,99572.36
2022-08-21T05:03:17.060Z,99573.85
2022-08-21T05:05:45.293Z,99570.48
2022-08-21T05:08:15.698Z,99567.60
2022-08-21T05:10:45.641Z,99569.99
2022-08-21T05:13:14.311Z,99570.87
2022-08-21T05:15:42.904Z,99570.38
2022-08-21T05:18:11.047Z,99563.92
2022-08-21T05:20:39.030Z,99554.23
2022-08-21T05:23:11.071Z,99545.06
2022-08-21T05:25:39.231Z,99541.02
2022-08-21T05:28:07.575Z,99541.46
2022-08-21T05:30:36.628Z,99548.24
2022-08-21T05:33:05.524Z,99551.48
2022-08-21T05:35:34.182Z,99553.31
2022-08-21T05:38:02.545Z,99555.77
2022-08-21T05:40:30.993Z,99557.15
2022-08-21T05:43:00.510Z,99561.60
2022-08-21T05:45:42.969Z,99565.70
2022-08-21T05:48:12.321Z,99571.44
2022-08-21T05:50:40.952Z,99576.36
2022-08-21T05:53:10.584Z,99580.60
2022-08-21T05:55:44.842Z,99588.23
2022-08-21T05:58:15.094Z,99587.69
2022-08-21T06:00:44.229Z,99587.23
2022-08-21T06:03:15.456Z,99589.63
2022-08-21T06:05:44.858Z,99588.27
2022-08-21T06:08:13.277Z,99590.77
2022-08-21T06:10:41.916Z,99594.13
2022-08-21T06:13:10.226Z,99592.75
2022-08-21T06:15:39.583Z,99592.68
2022-08-21T06:18:08.058Z,99591.29
2022-08-21T06:20:36.504Z,99589.99
2022-08-21T06:23:04.652Z,99587.36
2022-08-21T06:25:33.072Z,99588.83
2022-08-21T06:28:06.064Z,99593.06
2022-08-21T06:30:35.292Z,99596.98
2022-08-21T06:33:04.131Z,99599.27
2022-08-21T06:35:32.038Z,99601.42
2022-08-21T06:38:00.702Z,99596.16
2022-08-21T06:40:29.840Z,99597.90
2022-08-21T06:42:59.426Z,99602.14
2022-08-21T06:45:31.698Z,99604.56
2022-08-21T06:48:01.019Z,99612.61
2022-08-21T06:50:29.714Z,99611.98
2022-08-21T06:53:07.188Z,99617.48
2022-08-21T06:55:35.176Z,99621.40
2022-08-21T06:58:05.020Z,99623.27
2022-08-21T07:00:34.082Z,99630.46
2022-08-21T07:03:02.469Z,99635.67
2022-08-21T07:05:30.937Z,99640.84
2022-08-21T07:07:59.607Z,99645.42
2022-08-21T07:10:28.841Z,99648.82
2022-08-21T07:13:00.973Z,99651.13
2022-08-21T07:15:30.854Z,99651.14
2022-08-21T07:18:00.335Z,99650.10
2022-08-21T07:20:29.973Z,99653.03
2022-08-21T07:23:01.082Z,99656.48
2022-08-21T07:25:29.467Z,99658.59
2022-08-21T07:27:57.499Z,99659.13
2022-08-21T07:30:26.559Z,99660.00
2022-08-21T07:32:54.745Z,99661.11
2022-08-21T07:35:22.952Z,99660.45
2022-08-21T07:37:50.862Z,99657.12
2022-08-21T07:40:19.767Z,99653.29
2022-08-21T07:42:51.224Z,99655.73
2022-08-21T07:45:21.571Z,99657.85
2022-08-21T07:47:52.051Z,99655.41
2022-08-21T07:50:23.331Z,99652.80
2022-08-21T07:52:52.306Z,99655.52
2022-08-21T07:55:20.862Z,99654.39
2022-08-21T07:57:49.070Z,99650.23
2022-08-21T08:00:19.624Z,99647.84
2022-08-21T08:02:51.088Z,99645.19
2022-08-21T08:05:21.026Z,99643.71
2022-08-21T08:07:49.016Z,99641.09
2022-08-21T08:10:17.290Z,99642.26
2022-08-21T08:12:45.825Z,99644.66
2022-08-21T08:15:17.377Z,99647.93
2022-08-21T08:17:46.157Z,99651.53
2022-08-21T08:20:15.674Z,99651.50
2022-08-21T08:22:44.301Z,99648.11
2022-08-21T08:25:19.631Z,99650.79
2022-08-21T08:27:48.076Z,99644.83
2022-08-21T08:30:17.985Z,99643.49
2022-08-21T08:32:46.536Z,99643.72
2022-08-21T08:35:15.236Z,99642.73
2022-08-21T08:37:44.022Z,99644.86
2022-08-21T08:40:31.975Z,99643.11
2022-08-21T08:43:01.123Z,99640.60
2022-08-21T08:45:38.558Z,99638.27
2022-08-21T08:48:14.141Z,99635.85
2022-08-21T08:50:47.972Z,99636.13
2022-08-21T08:53:19.091Z,99637.14
2022-08-21T08:55:47.249Z,99641.09
2022-08-21T08:58:20.209Z,99641.79
2022-08-21T09:00:50.559Z,99638.67
2022-08-21T09:03:19.127Z,99638.44
2022-08-21T09:05:49.412Z,99633.83
2022-08-21T09:08:30.636Z,99627.14
2022-08-21T09:11:02.561Z,99620.73
2022-08-21T09:13:49.855Z,99615.81
2022-08-21T09:16:33.072Z,99618.95
2022-08-21T09:19:03.928Z,99621.67
2022-08-21T09:21:34.565Z,99617.02
2022-08-21T09:24:06.417Z,99611.13
2022-08-21T09:26:42.056Z,99604.11
2022-08-21T09:29:13.014Z,99598.27
2022-08-21T09:31:40.776Z,99599.93
2022-08-21T09:34:11.148Z,99602.38
2022-08-21T09:36:44.236Z,99600.64
2022-08-21T09:39:13.978Z,99593.70
2022-08-21T09:41:41.815Z,99593.46
2022-08-21T09:44:09.853Z,99590.66
2022-08-21T09:46:37.637Z,99582.96
2022-08-21T09:49:06.724Z,99578.45
2022-08-21T09:51:37.863Z,99587.90
2022-08-21T09:54:08.665Z,99590.89
2022-08-21T09:57:10.753Z,99587.78
2022-08-21T09:59:39.315Z,99590.88
2022-08-21T10:02:25.320Z,99588.44
2022-08-21T10:05:00.783Z,99581.81
2022-08-21T10:07:30.695Z,99573.86
2022-08-21T10:10:03.377Z,99572.13
2022-08-21T10:12:51.676Z,99569.55
2022-08-21T10:15:43.262Z,99575.95
2022-08-21T10:18:36.173Z,99586.11
2022-08-21T10:21:12.026Z,99591.59
2022-08-21T10:23:40.386Z,99592.65
2022-08-21T10:26:23.207Z,99593.09
2022-08-21T10:29:10.061Z,99587.45
2022-08-21T10:32:01.175Z,99583.77
2022-08-21T10:34:35.146Z,99586.38
2022-08-21T10:37:11.926Z,99594.47
2022-08-21T10:39:42.942Z,99591.66
2022-08-21T10:42:30.708Z,99591.25
2022-08-21T10:45:02.413Z,99590.40
2022-08-21T10:47:57.711Z,99590.48
2022-08-21T10:50:28.955Z,99587.52
2022-08-21T10:52:59.585Z,99583.34
2022-08-21T10:55:36.861Z,99584.61
2022-08-21T10:58:12.653Z,99579.86
2022-08-21T11:00:45.412Z,99573.05
2022-08-21T11:03:19.265Z,99569.82
2022-08-21T11:05:51.143Z,99568.15
2022-08-21T11:08:22.759Z,99568.48
2022-08-21T11:10:59.532Z,99568.88
2022-08-21T11:13:55.049Z,99565.86
2022-08-21T11:16:26.761Z,99555.54
2022-08-21T11:19:00.067Z,99556.77
2022-08-21T11:21:31.296Z,99558.04
2022-08-21T11:24:18.281Z,99557.10
2022-08-21T11:26:53.580Z,99555.78
2022-08-21T11:29:21.412Z,99552.02
2022-08-21T11:31:49.588Z,99553.52
2022-08-21T11:34:36.608Z,99550.56
2022-08-21T11:37:10.828Z,99551.50
2022-08-21T11:39:50.682Z,99552.92
2022-08-21T11:42:27.713Z,99547.02
2022-08-21T11:44:58.832Z,99540.41
2022-08-21T11:47:45.836Z,99541.17
2022-08-21T11:50:29.641Z,99539.11
2022-08-21T11:53:17.608Z,99533.41
2022-08-21T11:55:52.524Z,99524.05
2022-08-21T11:58:20.347Z,99515.94
2022-08-21T12:00:51.458Z,99505.83
2022-08-21T12:03:37.043Z,99502.33
2022-08-21T12:06:10.440Z,99504.90
2022-08-21T12:08:42.864Z,99507.11
2022-08-21T12:11:17.257Z,99504.94
2022-08-21T12:13:54.134Z,99502.73
2022-08-21T12:16:33.095Z,99499.08
2022-08-21T12:19:05.485Z,99499.96
2022-08-21T12:21:34.454Z,99497.59
2022-08-21T12:24:14.300Z,99495.89
2022-08-21T12:26:51.245Z,99491.80
2022-08-21T12:29:33.349Z,99488.06
2022-08-21T12:32:06.179Z,99489.60
2022-08-21T12:34:42.978Z,99487.23
2022-08-21T12:37:23.926Z,99480.88
2022-08-21T12:39:53.908Z,99479.86
2022-08-21T12:42:25.092Z,99478.94
2022-08-21T12:45:04.288Z,99477.64
2022-08-21T12:47:35.681Z,99475.42
2022-08-21T12:50:08.007Z,99473.39
2022-08-21T12:52:46.887Z,99472.70
2022-08-21T12:55:17.112Z,99467.89
2022-08-21T12:57:45.138Z,99466.73
2022-08-21T13:00:14.486Z,99462.65
2022-08-21T13:02:48.780Z,99461.07
2022-08-21T13:05:20.763Z,99461.64
2022-08-21T13:07:50.215Z,99468.37
2022-08-21T13:10:21.376Z,99473.77
2022-08-21T13:12:50.401Z,99471.05
2022-08-21T13:15:25.168Z,99467.10
2022-08-21T13:18:05.440Z,99467.90
2022-08-21T13:20:36.957Z,99463.59
2022-08-21T13:23:08.253Z,99459.83
2022-08-21T13:25:38.037Z,99460.85
2022-08-21T13:28:10.600Z,99457.77
2022-08-21T13:30:49.124Z,99458.04
2022-08-21T13:33:18.609Z,99452.84
2022-08-21T13:35:52.666Z,99450.08
2022-08-21T13:38:21.911Z,99442.79
2022-08-21T13:40:57.928Z,99436.40
2022-08-21T13:43:33.303Z,99436.15
2022-08-21T13:46:02.181Z,99436.77
2022-08-21T13:48:34.227Z,99438.69
2022-08-21T13:51:03.078Z,99438.39
2022-08-21T13:53:31.510Z,99441.45
2022-08-21T13:56:01.067Z,99443.50
2022-08-21T13:58:34.728Z,99440.21
2022-08-21T14:01:06.419Z,99437.99
2022-08-21T14:03:46.702Z,99436.20
2022-08-21T14:06:19.124Z,99429.48
2022-08-21T14:08:56.669Z,99426.09
2022-08-21T14:11:25.216Z,99415.71
2022-08-21T14:14:02.156Z,99415.67
2022-08-21T14:16:42.507Z,99412.69
2022-08-21T14:19:18.912Z,99418.90
2022-08-21T14:21:47.149Z,99418.70
2022-08-21T14:24:25.547Z,99418.83
2022-08-21T14:26:56.293Z,99420.60
2022-08-21T14:29:27.023Z,99419.56
2022-08-21T14:31:57.183Z,99416.55
2022-08-21T14:34:34.099Z,99419.31
2022-08-21T14:37:03.644Z,99418.45
2022-08-21T14:39:31.414Z,99421.20
2022-08-21T14:41:59.661Z,99422.41
2022-08-21T14:44:28.022Z,99420.95
2022-08-21T14:46:57.165Z,99425.38
2022-08-21T14:49:27.797Z,99426.05
2022-08-21T14:51:58.105Z,99424.98
2022-08-21T14:54:31.475Z,99428.02
2022-08-21T14:57:02.101Z,99428.00
2022-08-21T14:59:30.851Z,99428.27
2022-08-21T15:01:58.625Z,99430.48
2022-08-21T15:04:26.768Z,99431.88
2022-08-21T15:06:54.551Z,99436.85
2022-08-21T15:09:22.416Z,99434.77
2022-08-21T15:11:51.095Z,99431.14
2022-08-21T15:14:21.793Z,99431.26
2022-08-21T15:16:50.179Z,99431.73
2022-08-21T15:19:18.563Z,99429.77
2022-08-21T15:21:46.330Z,99424.48
2022-08-21T15:24:14.587Z,99419.45
2022-08-21T15:26:42.774Z,99417.58
2022-08-21T15:29:11.036Z,99410.17
2022-08-21T15:31:51.248Z,99406.23
2022-08-21T15:34:19.391Z,99401.30
2022-08-21T15:36:47.533Z,99397.99
2022-08-21T15:39:15.817Z,99398.10
2022-08-21T15:41:43.696Z,99391.41
2022-08-21T15:44:13.512Z,99390.33
2022-08-21T15:46:41.708Z,99383.73
2022-08-21T15:49:10.284Z,99382.23
2022-08-21T15:51:43.593Z,99381.25
2022-08-21T15:54:12.277Z,99387.26
2022-08-21T15:56:41.896Z,99390.98
2022-08-21T15:59:14.668Z,99389.23
2022-08-21T16:01:44.612Z,99398.69
2022-08-21T16:04:19.736Z,99404.88
2022-08-21T16:06:55.318Z,99402.98
2022-08-21T16:09:25.050Z,99400.45
2022-08-21T16:11:53.126Z,99401.06
2022-08-21T16:14:21.075Z,99408.21
2022-08-21T16:16:49.165Z,99417.13
2022-08-21T16:19:17.437Z,99419.23
2022-08-21T16:21:45.913Z,99421.42
2022-08-21T16:24:14.437Z,99422.73
2022-08-21T16:26:42.443Z,99431.29
2022-08-21T16:29:11.519Z,99429.49
2022-08-21T16:31:40.313Z,99435.48
2022-08-21T16:34:08.391Z,99437.27
2022-08-21T16:36:36.642Z,99439.63
2022-08-21T16:39:04.766Z,99440.56
2022-08-21T16:41:35.029Z,99433.38
2022-08-21T16:44:03.736Z,99434.35
2022-08-21T16:46:34.575Z,99434.91
2022-08-21T16:49:03.174Z,99431.16
2022-08-21T16:51:31.702Z,99429.61
2022-08-21T16:54:00.388Z,99434.21
2022-08-21T16:56:28.866Z,99434.66
2022-08-21T16:58:58.345Z,99436.48
2022-08-21T17:01:28.295Z,99436.90
2022-08-21T17:03:56.325Z,99441.94
2022-08-21T17:06:28.073Z,99446.09
2022-08-21T17:08:58.216Z,99451.50
2022-08-21T17:11:37.503Z,99457.21
2022-08-21T17:14:11.825Z,99460.40
2022-08-21T17:16:40.793Z,99460.71
2022-08-21T17:19:09.117Z,99471.39
2022-08-21T17:21:37.605Z,99468.77
2022-08-21T17:24:05.616Z,99465.09
2022-08-21T17:26:33.551Z,99469.03
2022-08-21T17:29:02.662Z,99466.95
2022-08-21T17:31:31.830Z,99469.16
2022-08-21T17:33:59.844Z,99465.80
2022-08-21T17:36:29.219Z,99462.29
2022-08-21T17:38:58.523Z,99461.52
2022-08-21T17:41:27.035Z,99462.09
2022-08-21T17:43:55.487Z,99460.76
2022-08-21T17:46:25.011Z,99460.82
2022-08-21T17:48:53.068Z,99464.66
2022-08-21T17:51:21.640Z,99463.59
2022-08-21T17:53:50.341Z,99462.12
2022-08-21T17:56:19.121Z,99461.34
2022-08-21T17:58:57.761Z,99464.75
2022-08-21T18:01:26.850Z,99467.52
2022-08-21T18:03:55.326Z,99465.89
2022-08-21T18:06:26.098Z,99464.81
2022-08-21T18:09:01.496Z,99469.77
2022-08-21T18:11:31.241Z,99468.02
2022-08-21T18:14:06.616Z,99466.61
2022-08-21T18:16:37.852Z,99468.86
2022-08-21T18:19:10.402Z,99470.48
2022-08-21T18:21:38.279Z,99470.09
2022-08-21T18:24:06.306Z,99472.28
2022-08-21T18:26:36.736Z,99469.61
2022-08-21T18:29:06.568Z,99471.71
2022-08-21T18:31:36.824Z,99476.41
2022-08-21T18:34:09.176Z,99478.07
2022-08-21T18:36:39.278Z,99480.34
2022-08-21T18:39:34.214Z,99482.06
2022-08-21T18:41:56.987Z,99480.34
2022-08-21T18:44:27.421Z,99480.70
2022-08-21T18:46:56.886Z,99478.83
2022-08-21T18:49:25.298Z,99476.88
2022-08-21T18:51:54.236Z,99474.17
2022-08-21T18:54:22.303Z,99469.95
2022-08-21T18:56:55.003Z,99472.35
2022-08-21T18:59:24.406Z,99475.33
2022-08-21T19:01:53.397Z,99472.02
2022-08-21T19:04:42.824Z,99478.09
2022-08-21T19:07:11.117Z,99477.70
2022-08-21T19:09:42.725Z,99477.00
2022-08-21T19:12:14.952Z,99475.42
2022-08-21T19:14:42.830Z,99480.14
2022-08-21T19:17:11.709Z,99480.55
2022-08-21T19:19:39.711Z,99479.74
2022-08-21T19:22:11.074Z,99478.14
2022-08-21T19:24:40.256Z,99479.48
2022-08-21T19:27:20.646Z,99481.09
2022-08-21T19:29:54.592Z,99481.23
2022-08-21T19:32:22.842Z,99479.67
2022-08-21T19:34:51.270Z,99478.67
2022-08-21T19:37:20.657Z,99477.65
2022-08-21T19:39:50.527Z,99477.71
2022-08-21T19:42:22.187Z,99480.38
2022-08-21T19:44:57.813Z,99479.05
2022-08-21T19:47:29.298Z,99479.79
2022-08-21T19:49:59.444Z,99475.34
2022-08-21T19:52:27.963Z,99469.26
2022-08-21T19:54:58.243Z,99465.85
2022-08-21T19:57:26.715Z,99465.36
2022-08-21T19:59:55.250Z,99467.48
2022-08-21T20:02:23.352Z,99472.28
2022-08-21T20:04:53.822Z,99474.92
2022-08-21T20:07:40.168Z,99471.69
2022-08-21T20:10:08.644Z,99470.41
2022-08-21T20:12:42.161Z,99468.08
2022-08-21T20:15:10.276Z,99464.84
2022-08-21T20:17:39.166Z,99462.46
2022-08-21T20:20:09.939Z,99458.96
2022-08-21T20:22:42.176Z,99456.36
2022-08-21T20:25:10.315Z,99457.16
2022-08-21T20:27:40.694Z,99455.58
2022-08-21T20:30:09.216Z,99452.78
2022-08-21T20:32:38.405Z,99453.85
2022-08-21T20:35:12.434Z,99453.09
2022-08-21T20:37:42.702Z,99448.23
2022-08-21T20:40:12.038Z,99443.63
2022-08-21T20:42:44.890Z,99440.23
2022-08-21T20:45:31.814Z,99437.30
2022-08-21T20:48:12.059Z,99442.60
2022-08-21T20:50:44.895Z,99449.46
2022-08-21T20:53:23.623Z,99452.75
2022-08-21T20:55:52.425Z,99454.15
2022-08-21T20:58:34.498Z,99455.64
2022-08-21T21:01:06.280Z,99457.19
2022-08-21T21:03:37.591Z,99458.85
2022-08-21T21:06:15.352Z,99459.37
2022-08-21T21:08:47.170Z,99461.78
2022-08-21T21:11:24.874Z,99465.89
2022-08-21T21:14:00.963Z,99463.70
2022-08-21T21:16:41.659Z,99463.96
2022-08-21T21:19:40.525Z,99465.88
2022-08-21T21:22:09.679Z,99467.02
2022-08-21T21:24:53.328Z,99471.14
2022-08-21T21:27:27.743Z,99476.91
2022-08-21T21:30:00.912Z,99475.12
2022-08-21T21:32:32.668Z,99477.13
2022-08-21T21:35:06.353Z,99473.20
2022-08-21T21:37:52.211Z,99475.26
2022-08-21T21:40:37.445Z,99478.88
2022-08-21T21:43:20.281Z,99482.94
2022-08-21T21:45:55.348Z,99478.83
2022-08-21T21:48:38.755Z,99475.80
2022-08-21T21:51:16.270Z,99476.61
2022-08-21T21:53:45.834Z,99477.94
2022-08-21T21:56:27.604Z,99478.31
2022-08-21T21:59:29.867Z,99476.96
2022-08-21T22:01:58.954Z,99477.30
2022-08-21T22:04:36.194Z,99472.78
2022-08-21T22:07:25.425Z,99470.29
2022-08-21T22:09:56.525Z,99480.88
2022-08-21T22:12:49.778Z,99484.88
2022-08-21T22:15:27.401Z,99489.48
2022-08-21T22:18:19.139Z,99487.01
2022-08-21T22:20:50.086Z,99488.59
2022-08-21T22:23:21.065Z,99486.24
2022-08-21T22:25:52.099Z,99485.63
2022-08-21T22:28:26.540Z,99482.23
2022-08-21T22:30:56.860Z,99479.05
2022-08-21T22:33:26.364Z,99483.93
2022-08-21T22:35:59.919Z,99486.19
2022-08-21T22:38:36.263Z,99488.19
2022-08-21T22:41:12.910Z,99485.73
2022-08-21T22:43:52.148Z,99482.14
2022-08-21T22:46:28.965Z,99480.09
2022-08-21T22:49:00.181Z,99476.90
2022-08-21T22:51:35.280Z,99477.60
2022-08-21T22:54:04.752Z,99476.08
2022-08-21T22:56:49.433Z,99469.20
2022-08-21T22:59:27.897Z,99461.45
2022-08-21T23:02:07.640Z,99466.51
2022-08-21T23:04:46.094Z,99471.02
2022-08-21T23:07:34.512Z,99473.39
2022-08-21T23:10:07.385Z,99470.15
2022-08-21T23:12:43.748Z,99472.67
2022-08-21T23:18:12.217Z,99471.08
2022-08-21T23:20:44.304Z,99466.75
2022-08-21T23:23:26.850Z,99462.59
2022-08-21T23:25:55.991Z,99464.39
2022-08-21T23:28:37.025Z,99469.59
2022-08-21T23:31:25.103Z,99471.48
2022-08-21T23:34:20.220Z,99474.52
2022-08-21T23:37:25.761Z,99476.76
2022-08-21T23:40:23.092Z,99474.18
2022-08-21T23:43:11.809Z,99475.59
2022-08-21T23:46:10.088Z,99476.62
2022-08-21T23:48:51.919Z,99476.22
2022-08-21T23:54:23.533Z,99481.76
2022-08-21T23:57:13.882Z,99481.67
2022-08-21T23:59:52.583Z,99483.98
